createdAt,value
2022-11-24T00:02:03.862Z,100176.63
2022-11-24T00:04:31.802Z,100171.75
2022-11-24T00:07:00.083Z,100175.84
2022-11-24T00:09:28.465Z,100175.31
2022-11-24T00:11:56.870Z,100169.84
2022-11-24T00:14:25.336Z,100170.22
2022-11-24T00:16:53.788Z,100176.47
2022-11-24T00:19:22.153Z,100176.47
2022-11-24T00:21:50.582Z,100188.19
2022-11-24T00:24:19.077Z,100175.66
2022-11-24T00:26:47.510Z,100175.97
2022-11-24T00:29:16.625Z,100171.34
2022-11-24T00:31:44.339Z,100183.59
2022-11-24T00:34:15.251Z,100170.75
2022-11-24T00:36:44.161Z,100181.13
2022-11-24T00:39:15.820Z,100185.19
2022-11-24T00:41:45.972Z,100184.91
2022-11-24T00:44:16.063Z,100168.78
2022-11-24T00:46:46.319Z,100171.50
2022-11-24T00:49:16.482Z,100175.34
2022-11-24T00:51:46.720Z,100175.59
2022-11-24T00:54:16.849Z,100175.09
2022-11-24T00:56:47.766Z,100173.16
2022-11-24T00:59:17.849Z,100174.50
2022-11-24T01:01:47.950Z,100172.38
2022-11-24T01:04:18.175Z,100181.88
2022-11-24T01:06:46.473Z,100178.81
2022-11-24T01:09:14.881Z,100178.25
2022-11-24T01:12:01.418Z,100185.09
2022-11-24T01:14:33.404Z,100204.66
2022-11-24T05:34:01.076Z,100347.94
2022-11-24T05:36:49.895Z,100350.16
2022-11-24T05:39:21.641Z,100356.94
2022-11-24T05:41:52.287Z,100354.47
2022-11-24T05:44:22.582Z,100359.91
2022-11-24T05:46:52.958Z,100360.13
2022-11-24T05:49:23.067Z,100366.53
2022-11-24T05:51:53.180Z,100367.94
2022-11-24T05:54:23.244Z,100360.88
2022-11-24T05:56:53.832Z,100367.72
2022-11-24T05:59:24.096Z,100372.59
2022-11-24T06:01:52.653Z,100379.13
2022-11-24T06:04:20.908Z,100369.84
2022-11-24T06:06:49.332Z,100376.13
2022-11-24T06:09:18.082Z,100374.75
2022-11-24T06:11:49.093Z,100379.38
2022-11-24T06:14:19.376Z,100379.97
2022-11-24T06:16:49.577Z,100382.44
2022-11-24T06:19:19.678Z,100386.53
2022-11-24T06:21:49.835Z,100393.13
2022-11-24T06:24:18.281Z,100398.50
2022-11-24T06:26:46.714Z,100402.31
2022-11-24T06:29:15.482Z,100398.41
2022-11-24T06:31:43.660Z,100406.81
2022-11-24T06:34:13.812Z,100413.66
2022-11-24T06:36:43.983Z,100414.28
2022-11-24T06:39:12.198Z,100410.94
2022-11-24T06:41:40.784Z,100414.66
2022-11-24T06:44:10.941Z,100416.41
2022-11-24T06:46:40.988Z,100412.84
2022-11-24T06:49:10.887Z,100415.03
2022-11-24T06:51:41.929Z,100421.78
2022-11-24T06:54:18.448Z,100422.06
2022-11-24T06:56:48.593Z,100423.16
2022-11-24T06:59:21.036Z,100428.09
2022-11-24T07:01:50.180Z,100435.50
2022-11-24T07:04:19.237Z,100433.03
2022-11-24T07:06:46.997Z,100445.28
2022-11-24T07:09:15.170Z,100445.28
2022-11-24T07:11:43.715Z,100436.00
2022-11-24T07:14:12.762Z,100436.94
2022-11-24T07:16:40.780Z,100439.69
2022-11-24T07:19:11.109Z,100444.91
2022-11-24T07:21:40.565Z,100435.38
2022-11-24T07:24:10.485Z,100436.81
2022-11-24T07:26:40.620Z,100435.47
2022-11-24T07:29:10.645Z,100439.78
2022-11-24T07:31:40.451Z,100448.78
2022-11-24T07:34:10.641Z,100454.47
2022-11-24T07:36:41.080Z,100464.94
2022-11-24T07:39:10.424Z,100461.31
2022-11-24T07:41:40.211Z,100463.47
2022-11-24T07:44:09.967Z,100473.75
2022-11-24T07:46:39.861Z,100464.13
2022-11-24T07:49:09.843Z,100468.22
2022-11-24T07:51:39.770Z,100477.81
2022-11-24T07:54:10.388Z,100475.47
2022-11-24T07:56:40.210Z,100477.41
2022-11-24T07:59:09.881Z,100477.41
2022-11-24T08:01:39.742Z,100479.03
2022-11-24T08:04:09.748Z,100485.06
2022-11-24T08:06:43.264Z,100487.34
2022-11-24T08:09:17.094Z,100485.50
2022-11-24T08:11:47.017Z,100477.34
2022-11-24T08:14:17.041Z,100480.44
2022-11-24T08:16:46.619Z,100481.31
2022-11-24T08:19:16.365Z,100478.59
2022-11-24T08:21:46.065Z,100485.75
2022-11-24T08:24:17.071Z,100485.50
2022-11-24T08:26:47.203Z,100483.91
2022-11-24T08:29:17.007Z,100487.44
2022-11-24T08:31:47.123Z,100491.06
2022-11-24T08:34:17.247Z,100490.88
2022-11-24T08:36:47.087Z,100486.56
2022-11-24T08:39:17.404Z,100493.84
2022-11-24T08:41:46.704Z,100482.66
2022-11-24T08:44:18.357Z,100481.66
2022-11-24T08:46:49.306Z,100487.47
2022-11-24T08:49:19.087Z,100486.06
2022-11-24T08:51:51.309Z,100489.91
2022-11-24T08:54:21.750Z,100496.44
2022-11-24T08:56:51.937Z,100498.66
2022-11-24T08:59:21.781Z,100500.56
2022-11-24T09:01:51.579Z,100502.22
2022-11-24T09:04:21.902Z,100510.41
2022-11-24T09:06:51.374Z,100520.81
2022-11-24T09:09:21.258Z,100523.03
2022-11-24T09:11:50.971Z,100525.00
2022-11-24T09:14:21.063Z,100526.16
2022-11-24T09:16:48.381Z,100522.16
2022-11-24T09:19:18.056Z,100526.06
2022-11-24T09:21:45.380Z,100536.19
2022-11-24T09:24:16.664Z,100528.38
2022-11-24T09:26:47.623Z,100534.97
2022-11-24T09:29:16.449Z,100539.06
2022-11-24T09:31:46.028Z,100537.44
2022-11-24T09:34:17.003Z,100536.06
2022-11-24T09:36:46.267Z,100541.03
2022-11-24T09:39:16.267Z,100544.59
2022-11-24T09:42:46.948Z,100549.84
2022-11-24T09:46:05.490Z,100542.47
2022-11-24T09:48:46.012Z,100536.44
2022-11-24T09:51:22.616Z,100545.50
2022-11-24T09:54:16.598Z,100532.38
2022-11-24T09:56:51.384Z,100538.97
2022-11-24T09:59:24.832Z,100544.19
2022-11-24T10:01:54.514Z,100546.66
2022-11-24T10:04:41.368Z,100547.25
2022-11-24T10:08:07.768Z,100553.00
2022-11-24T10:11:01.002Z,100558.78
2022-11-24T10:14:29.137Z,100561.78
2022-11-24T10:17:50.066Z,100562.09
2022-11-24T10:20:36.434Z,100561.00
2022-11-24T10:23:56.638Z,100559.63
2022-11-24T10:27:22.156Z,100568.41
2022-11-24T10:29:53.487Z,100572.22
2022-11-24T10:32:46.120Z,100570.84
2022-11-24T10:35:27.737Z,100565.94
2022-11-24T10:38:21.497Z,100563.50
2022-11-24T10:41:21.826Z,100549.53
2022-11-24T10:43:52.935Z,100550.06
2022-11-24T10:46:31.534Z,100544.31
2022-11-24T10:49:06.207Z,100550.34
2022-11-24T10:52:11.752Z,100558.56
2022-11-24T10:55:05.586Z,100554.47
2022-11-24T10:57:40.071Z,100550.06
2022-11-24T11:00:18.952Z,100555.03
2022-11-24T11:03:10.644Z,100569.53
2022-11-24T11:05:50.887Z,100584.59
2022-11-24T11:08:29.564Z,100585.66
2022-11-24T11:11:28.703Z,100577.19
2022-11-24T11:14:07.545Z,100573.59
2022-11-24T11:16:55.609Z,100571.09
2022-11-24T11:19:49.475Z,100565.56
2022-11-24T11:22:29.029Z,100575.16
2022-11-24T11:25:11.314Z,100567.97
2022-11-24T11:27:42.577Z,100565.44
2022-11-24T11:36:19.089Z,100558.91
2022-11-24T11:38:48.575Z,100562.50
2022-11-24T11:41:36.022Z,100560.56
2022-11-24T11:44:48.353Z,100560.53
2022-11-24T11:47:48.872Z,100561.84
2022-11-24T11:51:14.775Z,100558.81
2022-11-24T11:54:06.921Z,100561.34
2022-11-24T11:56:45.915Z,100568.22
2022-11-24T11:59:24.362Z,100572.00
2022-11-24T12:03:05.126Z,100574.19
2022-11-24T12:06:34.533Z,100588.47
2022-11-24T12:09:24.480Z,100584.38
2022-11-24T12:12:36.158Z,100584.34
2022-11-24T12:15:47.857Z,100583.97
2022-11-24T12:18:57.592Z,100585.31
2022-11-24T12:21:52.543Z,100574.38
2022-11-24T12:25:03.443Z,100569.44
2022-11-24T12:28:22.006Z,100570.28
2022-11-24T12:31:27.142Z,100569.72
2022-11-24T12:34:38.228Z,100571.66
2022-11-24T12:37:51.812Z,100570.53
2022-11-24T12:44:02.973Z,100574.88
2022-11-24T12:47:12.774Z,100578.56
2022-11-24T12:50:18.829Z,100574.81
2022-11-24T12:53:02.550Z,100584.53
2022-11-24T12:55:34.467Z,100569.31
2022-11-24T12:58:50.962Z,100567.84
2022-11-24T13:01:36.147Z,100577.47
2022-11-24T13:04:48.515Z,100581.09
2022-11-24T13:07:47.592Z,100586.59
2022-11-24T13:13:16.732Z,100581.16
2022-11-24T13:19:02.607Z,100576.16
2022-11-24T13:21:47.334Z,100591.13
2022-11-24T13:24:18.041Z,100593.88
2022-11-24T13:26:55.607Z,100603.16
2022-11-24T13:29:45.539Z,100611.72
2022-11-24T13:32:15.530Z,100611.94
2022-11-24T13:34:55.144Z,100609.78
2022-11-24T13:37:33.720Z,100614.25
2022-11-24T13:40:11.819Z,100615.06
2022-11-24T13:43:02.331Z,100620.22
2022-11-24T13:45:39.306Z,100634.97
2022-11-24T13:48:22.419Z,100640.19
2022-11-24T13:50:53.358Z,100646.22
2022-11-24T13:53:46.601Z,100644.88
2022-11-24T13:56:16.609Z,100639.97
2022-11-24T13:59:18.779Z,100656.53
2022-11-24T14:01:58.726Z,100641.97
2022-11-24T14:04:31.496Z,100656.25
2022-11-24T14:07:13.201Z,100658.50
2022-11-24T14:09:51.268Z,100652.78
2022-11-24T14:12:26.875Z,100661.28
2022-11-24T14:15:35.536Z,100664.91
2022-11-24T14:18:21.026Z,100673.69
2022-11-24T14:20:51.124Z,100675.06
2022-11-24T14:23:21.608Z,100672.31
2022-11-24T14:25:53.652Z,100676.19
2022-11-24T14:28:29.483Z,100675.94
2022-11-24T14:31:25.769Z,100675.94
2022-11-24T14:34:21.185Z,100681.72
2022-11-24T14:36:52.616Z,100685.56
2022-11-24T14:39:27.291Z,100686.94
2022-11-24T14:42:23.825Z,100692.97
2022-11-24T14:45:04.171Z,100693.56
2022-11-24T14:47:45.506Z,100685.06
2022-11-24T14:50:22.556Z,100691.09
2022-11-24T14:52:59.066Z,100685.28
2022-11-24T14:55:39.239Z,100691.34
2022-11-24T14:58:37.674Z,100687.53
2022-11-24T15:01:24.016Z,100704.81
2022-11-24T15:05:02.046Z,100701.56
2022-11-24T15:07:29.778Z,100707.88
2022-11-24T15:10:06.863Z,100713.38
2022-11-24T15:12:42.197Z,100704.59
2022-11-24T15:15:15.429Z,100718.03
2022-11-24T15:17:59.183Z,100718.03
2022-11-24T15:20:46.635Z,100716.38
2022-11-24T15:23:29.783Z,100724.88
2022-11-24T15:26:02.520Z,100727.88
2022-11-24T15:28:33.674Z,100721.84
2022-11-24T15:31:14.215Z,100727.91
2022-11-24T15:33:42.609Z,100724.59
2022-11-24T15:36:12.414Z,100728.97
2022-11-24T15:38:42.966Z,100729.81
2022-11-24T15:41:21.924Z,100737.22
2022-11-24T15:43:58.844Z,100733.66
2022-11-24T15:46:38.220Z,100737.50
2022-11-24T15:49:08.526Z,100749.03
2022-11-24T15:51:47.058Z,100754.53
2022-11-24T15:54:19.595Z,100752.03
2022-11-24T15:56:49.647Z,100750.41
2022-11-24T15:59:21.220Z,100764.38
2022-11-24T16:01:51.657Z,100762.47
2022-11-24T16:04:21.521Z,100755.63
2022-11-24T16:06:51.229Z,100764.66
2022-11-24T16:09:21.027Z,100771.53
2022-11-24T16:11:50.798Z,100766.28
2022-11-24T16:14:20.646Z,100763.00
2022-11-24T16:16:50.928Z,100768.22
2022-11-24T16:19:20.685Z,100775.09
2022-11-24T16:21:50.614Z,100771.25
2022-11-24T16:24:23.676Z,100779.75
2022-11-24T16:26:53.245Z,100780.28
2022-11-24T16:29:24.342Z,100775.91
2022-11-24T16:31:54.780Z,100785.50
2022-11-24T16:34:24.516Z,100780.28
2022-11-24T16:36:54.151Z,100792.91
2022-11-24T16:39:23.969Z,100778.91
2022-11-24T16:41:53.606Z,100789.88
2022-11-24T16:44:23.270Z,100784.94
2022-11-24T16:46:53.794Z,100789.31
2022-11-24T16:49:23.072Z,100783.56
2022-11-24T16:51:53.037Z,100786.28
2022-11-24T16:54:22.977Z,100784.88
2022-11-24T16:56:52.698Z,100786.22
2022-11-24T16:59:23.085Z,100789.72
2022-11-24T17:01:52.723Z,100802.06
2022-11-24T17:04:22.710Z,100800.13
2022-11-24T17:06:52.649Z,100802.31
2022-11-24T17:09:22.602Z,100796.22
2022-11-24T17:11:52.309Z,100794.28
2022-11-24T17:14:20.733Z,100799.47
2022-11-24T17:16:49.150Z,100796.22
2022-11-24T17:19:17.586Z,100797.59
2022-11-24T17:21:46.553Z,100799.78
2022-11-24T17:24:17.638Z,100791.81
2022-11-24T17:26:49.340Z,100804.94
2022-11-24T17:29:19.510Z,100805.75
2022-11-24T17:31:49.339Z,100799.72
2022-11-24T17:34:19.509Z,100799.44
2022-11-24T17:36:49.167Z,100793.16
2022-11-24T17:39:23.361Z,100798.91
2022-11-24T17:41:53.531Z,100795.66
2022-11-24T17:44:20.628Z,100796.72
2022-11-24T17:46:50.306Z,100793.72
2022-11-24T17:49:21.259Z,100802.50
2022-11-24T17:51:50.727Z,100809.34
2022-11-24T17:57:10.700Z,100814.88
2022-11-24T17:59:39.349Z,100812.69
2022-11-24T18:02:10.159Z,100810.22
2022-11-24T18:04:40.248Z,100820.09
2022-11-24T18:07:07.830Z,100816.53
2022-11-24T18:09:37.080Z,100809.16
2022-11-24T18:12:06.295Z,100813.00
2022-11-24T18:14:36.791Z,100822.84
2022-11-24T18:17:07.470Z,100825.34
2022-11-24T18:19:37.576Z,100828.88
2022-11-24T18:22:07.634Z,100829.19
2022-11-24T18:24:38.053Z,100831.94
2022-11-24T18:27:08.405Z,100839.59
2022-11-24T18:29:38.401Z,100835.19
2022-11-24T18:32:08.512Z,100839.53
2022-11-24T18:34:38.702Z,100837.59
2022-11-24T18:37:10.768Z,100837.91
2022-11-24T18:39:42.431Z,100831.00
2022-11-24T18:42:15.728Z,100837.84
2022-11-24T18:44:49.746Z,100837.84
2022-11-24T18:47:22.969Z,100840.59
2022-11-24T18:49:52.992Z,100841.41
2022-11-24T18:52:23.014Z,100841.38
2022-11-24T18:54:53.053Z,100840.56
2022-11-24T18:57:23.271Z,100837.53
2022-11-24T18:59:53.397Z,100836.97
2022-11-24T19:02:23.595Z,100842.66
2022-11-24T19:04:53.739Z,100836.03
2022-11-24T19:07:23.916Z,100832.16
2022-11-24T19:09:53.958Z,100843.34
2022-11-24T19:12:24.690Z,100843.00
2022-11-24T19:14:55.322Z,100844.28
2022-11-24T19:17:25.620Z,100845.03
2022-11-24T19:19:55.819Z,100853.19
2022-11-24T19:22:25.823Z,100843.31
2022-11-24T19:24:55.820Z,100850.06
2022-11-24T19:27:25.867Z,100844.00
2022-11-24T19:29:55.915Z,100842.03
2022-11-24T19:32:26.015Z,100846.13
2022-11-24T19:34:55.991Z,100841.41
2022-11-24T19:37:29.148Z,100843.00
2022-11-24T19:39:59.191Z,100849.78
2022-11-24T19:42:29.263Z,100856.84
2022-11-24T19:44:59.264Z,100857.88
2022-11-24T19:47:29.409Z,100848.53
2022-11-24T19:49:59.568Z,100850.44
2022-11-24T19:52:29.602Z,100852.84
2022-11-24T19:55:00.172Z,100860.16
2022-11-24T19:57:30.363Z,100858.78
2022-11-24T20:00:00.432Z,100856.84
2022-11-24T20:02:29.905Z,100865.06
2022-11-24T20:04:57.431Z,100870.78
2022-11-24T20:07:25.982Z,100875.59
2022-11-24T20:09:54.337Z,100888.69
2022-11-24T20:12:23.463Z,100893.28
2022-11-24T20:14:52.538Z,100890.81
2022-11-24T20:17:22.623Z,100882.56
2022-11-24T20:19:52.704Z,100892.06
2022-11-24T20:22:22.710Z,100896.38
2022-11-24T20:24:52.734Z,100887.59
2022-11-24T20:27:22.805Z,100900.44
2022-11-24T20:29:52.822Z,100894.41
2022-11-24T20:32:22.820Z,100894.41
2022-11-24T20:34:52.795Z,100909.16
2022-11-24T20:37:23.416Z,100912.94
2022-11-24T20:39:52.848Z,100915.75
2022-11-24T20:42:21.569Z,100911.44
2022-11-24T20:44:51.488Z,100915.06
2022-11-24T20:47:21.252Z,100918.34
2022-11-24T20:49:50.954Z,100915.91
2022-11-24T20:52:20.832Z,100917.00
2022-11-24T20:54:50.598Z,100922.22
2022-11-24T20:57:20.244Z,100921.16
2022-11-24T20:59:50.146Z,100914.03
2022-11-24T21:02:21.219Z,100929.03
2022-11-24T21:04:51.346Z,100928.47
2022-11-24T21:07:21.048Z,100927.66
2022-11-24T21:09:50.784Z,100929.84
2022-11-24T21:12:20.778Z,100925.78
2022-11-24T21:14:50.524Z,100926.88
2022-11-24T21:17:20.287Z,100924.16
2022-11-24T21:19:50.052Z,100921.16
2022-11-24T21:22:19.799Z,100920.66
2022-11-24T21:24:49.453Z,100917.44
2022-11-24T21:27:19.306Z,100925.91
2022-11-24T21:29:49.029Z,100923.75
2022-11-24T21:32:19.104Z,100924.34
2022-11-24T21:34:48.492Z,100922.41
2022-11-24T21:37:17.029Z,100935.25
2022-11-24T21:39:45.888Z,100934.44
2022-11-24T21:42:15.695Z,100933.09
2022-11-24T21:44:45.481Z,100935.34
2022-11-24T21:47:12.573Z,100944.13
2022-11-24T21:49:39.785Z,100943.25
2022-11-24T21:52:08.343Z,100946.84
2022-11-24T21:54:37.003Z,100949.00
2022-11-24T21:57:05.261Z,100949.25
2022-11-24T21:59:33.703Z,100952.41
2022-11-24T22:02:02.286Z,100945.22
2022-11-24T22:04:30.631Z,100949.22
2022-11-24T22:06:59.168Z,100941.31
2022-11-24T22:09:27.547Z,100936.72
2022-11-24T22:11:56.047Z,100943.06
2022-11-24T22:14:24.357Z,100944.78
2022-11-24T22:16:53.405Z,100947.84
2022-11-24T22:19:21.320Z,100942.97
2022-11-24T22:21:49.868Z,100949.00
2022-11-24T22:24:21.688Z,100943.59
2022-11-24T22:26:54.941Z,100949.09
2022-11-24T22:29:23.727Z,100951.66
2022-11-24T22:31:50.988Z,100954.13
2022-11-24T22:34:20.849Z,100956.13
2022-11-24T22:36:50.842Z,100959.97
2022-11-24T22:39:20.443Z,100960.88
2022-11-24T22:41:50.257Z,100959.28
2022-11-24T22:44:23.055Z,100965.06
2022-11-24T22:46:53.257Z,100969.75
2022-11-24T22:49:23.715Z,100960.78
2022-11-24T22:51:53.752Z,100960.00
2022-11-24T22:54:23.795Z,100968.00
2022-11-24T22:56:53.470Z,100964.75
2022-11-24T22:59:23.611Z,100971.41
2022-11-24T23:01:53.191Z,100975.03
2022-11-24T23:04:23.296Z,100965.47
2022-11-24T23:06:53.400Z,100966.88
2022-11-24T23:09:23.141Z,100958.41
2022-11-24T23:11:52.906Z,100967.50
2022-11-24T23:14:22.776Z,100968.31
2022-11-24T23:16:54.217Z,100967.22
2022-11-24T23:19:24.287Z,100971.38
2022-11-24T23:21:54.472Z,100968.63
2022-11-24T23:24:24.508Z,100973.81
2022-11-24T23:26:54.632Z,100973.31
2022-11-24T23:29:24.741Z,100976.38
2022-11-24T23:31:54.789Z,100968.97
2022-11-24T23:34:24.822Z,100969.22
2022-11-24T23:36:54.900Z,100972.56
2022-11-24T23:39:24.949Z,100973.91
2022-11-24T23:41:55.092Z,100982.13
2022-11-24T23:44:25.380Z,100974.19
2022-11-24T23:46:55.767Z,100974.44
2022-11-24T23:49:31.963Z,100985.66
2022-11-24T23:52:02.044Z,100983.72
2022-11-24T23:54:32.168Z,100989.78
2022-11-24T23:57:02.289Z,100987.03
2022-11-24T23:59:32.306Z,100982.94
